createdAt,value
2018-01-11T00:02:04.078Z,21.00
2018-01-11T00:04:31.660Z,22.50
2018-01-11T00:06:59.222Z,20.90
2018-01-11T00:09:26.834Z,22.63
2018-01-11T00:11:54.403Z,21.70
2018-01-11T00:14:21.967Z,20.73
2018-01-11T00:16:49.575Z,23.57
2018-01-11T00:19:17.251Z,23.53
2018-01-11T00:21:44.902Z,23.43
2018-01-11T00:24:12.507Z,27.60
2018-01-11T00:26:40.079Z,22.43
2018-01-11T00:29:07.666Z,23.50
2018-01-11T00:31:35.288Z,23.00
2018-01-11T00:34:03.004Z,24.37
2018-01-11T00:36:30.585Z,24.63
2018-01-11T00:38:58.195Z,22.73
2018-01-11T00:41:25.782Z,24.13
2018-01-11T00:43:53.361Z,22.33
2018-01-11T00:46:21.003Z,25.10
2018-01-11T00:48:48.582Z,26.70
2018-01-11T00:51:16.157Z,26.57
2018-01-11T00:53:43.759Z,25.80
2018-01-11T00:56:11.341Z,26.13
2018-01-11T00:58:38.921Z,29.13
2018-01-11T01:01:06.526Z,27.80
2018-01-11T01:03:34.100Z,26.50
2018-01-11T01:06:01.670Z,26.20
2018-01-11T01:08:29.296Z,28.70
2018-01-11T01:10:56.967Z,22.00
2018-01-11T01:13:24.542Z,26.37
2018-01-11T01:15:52.169Z,27.13
2018-01-11T01:18:19.755Z,24.93
2018-01-11T01:20:47.335Z,27.87
2018-01-11T01:23:15.002Z,27.73
2018-01-11T01:25:42.592Z,24.37
2018-01-11T01:28:10.173Z,26.07
2018-01-11T01:30:37.782Z,25.87
2018-01-11T01:33:05.357Z,29.27
2018-01-11T01:35:32.919Z,27.23
2018-01-11T01:38:00.536Z,26.30
2018-01-11T01:40:28.107Z,27.40
2018-01-11T01:42:55.921Z,27.90
2018-01-11T01:45:23.540Z,26.30
2018-01-11T01:47:51.120Z,27.17
2018-01-11T01:50:18.693Z,28.67
2018-01-11T01:52:46.304Z,27.07
2018-01-11T01:55:13.894Z,23.93
2018-01-11T01:57:41.490Z,27.97
2018-01-11T02:00:09.172Z,28.03
2018-01-11T02:02:36.744Z,28.20
2018-01-11T02:05:04.337Z,26.63
2018-01-11T02:07:31.962Z,29.07
2018-01-11T02:09:59.631Z,26.67
2018-01-11T02:12:27.198Z,29.30
2018-01-11T02:14:54.808Z,29.00
2018-01-11T02:17:22.433Z,28.63
2018-01-11T02:19:50.073Z,25.80
2018-01-11T02:22:17.675Z,26.70
2018-01-11T02:24:45.302Z,27.50
2018-01-11T02:27:12.884Z,24.87
2018-01-11T02:29:40.495Z,26.17
2018-01-11T02:32:08.062Z,25.07
2018-01-11T02:34:35.641Z,23.17
2018-01-11T02:37:03.250Z,22.67
2018-01-11T02:39:30.819Z,19.63
2018-01-11T02:41:58.395Z,22.77
2018-01-11T02:44:26.000Z,22.10
2018-01-11T02:46:53.576Z,19.20
2018-01-11T02:49:21.127Z,19.17
2018-01-11T02:51:48.735Z,20.07
2018-01-11T02:54:16.316Z,17.60
2018-01-11T02:56:43.884Z,18.60
2018-01-11T02:59:11.489Z,17.40
2018-01-11T03:01:39.072Z,15.80
2018-01-11T03:04:06.644Z,19.33
2018-01-11T03:06:34.267Z,16.20
2018-01-11T03:09:01.846Z,17.90
2018-01-11T03:11:29.415Z,15.40
2018-01-11T03:13:57.032Z,19.77
2018-01-11T03:16:24.622Z,17.30
2018-01-11T03:18:52.189Z,15.67
2018-01-11T03:21:19.791Z,15.70
2018-01-11T03:23:47.458Z,17.50
2018-01-11T03:26:15.285Z,17.17
2018-01-11T03:28:42.881Z,17.73
2018-01-11T03:31:10.442Z,18.03
2018-01-11T03:33:38.026Z,18.87
2018-01-11T03:36:05.635Z,18.60
2018-01-11T03:38:33.231Z,20.57
2018-01-11T03:41:00.797Z,18.50
2018-01-11T03:43:28.421Z,18.60
2018-01-11T03:45:55.996Z,16.90
2018-01-11T03:48:23.565Z,17.80
2018-01-11T03:50:51.190Z,18.20
2018-01-11T03:53:18.749Z,16.87
2018-01-11T03:55:46.393Z,17.83
2018-01-11T03:58:14.018Z,18.13
2018-01-11T04:00:41.600Z,17.83
2018-01-11T04:03:09.172Z,18.83
2018-01-11T04:05:36.773Z,18.40
2018-01-11T04:08:04.343Z,17.80
2018-01-11T04:10:31.918Z,16.23
2018-01-11T04:12:59.527Z,17.70
2018-01-11T04:15:27.102Z,17.57
2018-01-11T04:17:54.964Z,17.30
2018-01-11T04:20:22.584Z,18.57
2018-01-11T04:22:50.183Z,17.77
2018-01-11T04:25:17.740Z,16.03
2018-01-11T04:27:45.530Z,17.63
2018-01-11T04:30:13.455Z,16.70
2018-01-11T04:32:41.046Z,17.30
2018-01-11T04:35:08.689Z,17.27
2018-01-11T04:37:36.275Z,18.60
2018-01-11T04:40:03.840Z,15.80
2018-01-11T04:42:31.462Z,17.67
2018-01-11T04:44:59.044Z,17.57
2018-01-11T04:47:26.622Z,18.77
2018-01-11T04:49:54.240Z,19.70
2018-01-11T04:52:21.808Z,20.47
2018-01-11T04:54:49.394Z,24.73
2018-01-11T04:57:17.021Z,21.60
2018-01-11T04:59:44.603Z,17.17
2018-01-11T05:02:12.180Z,19.20
2018-01-11T05:04:39.784Z,20.90
2018-01-11T05:07:07.406Z,18.80
2018-01-11T05:09:34.978Z,34.03
2018-01-11T05:12:02.583Z,18.23
2018-01-11T05:14:30.172Z,15.50
2018-01-11T05:16:57.838Z,16.57
2018-01-11T05:19:25.445Z,17.97
2018-01-11T05:21:53.020Z,16.53
2018-01-11T05:24:20.595Z,17.17
2018-01-11T05:26:48.219Z,16.87
2018-01-11T05:29:15.957Z,15.67
2018-01-11T05:31:43.857Z,17.50
2018-01-11T05:34:11.464Z,17.03
2018-01-11T05:36:39.234Z,16.77
2018-01-11T05:39:06.814Z,17.60
2018-01-11T05:41:34.430Z,17.23
2018-01-11T05:44:01.994Z,14.50
2018-01-11T05:46:29.565Z,16.20
2018-01-11T05:48:57.169Z,15.10
2018-01-11T05:51:24.743Z,16.63
2018-01-11T05:53:52.326Z,15.83
2018-01-11T05:56:19.971Z,15.90
2018-01-11T05:58:47.582Z,14.90
2018-01-11T06:01:15.153Z,14.87
2018-01-11T06:03:42.756Z,16.13
2018-01-11T06:06:10.328Z,16.87
2018-01-11T06:08:37.900Z,14.57
2018-01-11T06:11:05.543Z,17.60
2018-01-11T06:13:33.131Z,18.53
2018-01-11T06:16:00.703Z,17.60
2018-01-11T06:18:28.320Z,17.70
2018-01-11T06:20:55.894Z,17.57
2018-01-11T06:23:23.450Z,18.83
2018-01-11T06:25:51.079Z,17.80
2018-01-11T06:28:18.668Z,37.10
2018-01-11T06:30:46.297Z,22.40
2018-01-11T06:33:13.927Z,17.80
2018-01-11T06:35:41.518Z,16.70
2018-01-11T06:38:09.088Z,18.67
2018-01-11T06:40:36.726Z,18.43
2018-01-11T06:43:04.307Z,18.93
2018-01-11T06:45:31.884Z,18.67
2018-01-11T06:47:59.548Z,19.00
2018-01-11T06:50:27.120Z,18.93
2018-01-11T06:52:54.704Z,17.70
2018-01-11T06:55:22.354Z,18.63
2018-01-11T06:57:49.938Z,15.50
2018-01-11T07:00:17.693Z,18.27
2018-01-11T07:02:45.359Z,16.10
2018-01-11T07:05:12.930Z,16.93
2018-01-11T07:07:40.548Z,17.77
2018-01-11T07:10:08.473Z,16.33
2018-01-11T07:12:36.204Z,17.90
2018-01-11T07:15:03.771Z,15.60
2018-01-11T07:17:31.360Z,14.63
2018-01-11T07:19:59.001Z,17.07
2018-01-11T07:22:26.576Z,15.93
2018-01-11T07:24:54.531Z,16.20
2018-01-11T07:27:22.110Z,14.40
2018-01-11T07:29:49.836Z,15.03
2018-01-11T07:32:17.619Z,15.00
2018-01-11T07:34:45.377Z,17.03
2018-01-11T07:37:13.038Z,15.93
2018-01-11T07:39:40.683Z,17.97
2018-01-11T07:42:08.276Z,16.83
2018-01-11T07:44:35.837Z,17.80
2018-01-11T07:47:03.446Z,21.83
2018-01-11T07:49:31.011Z,20.00
2018-01-11T07:51:58.588Z,18.53
2018-01-11T07:54:26.210Z,22.07
2018-01-11T07:56:53.782Z,20.20
2018-01-11T07:59:21.403Z,22.30
2018-01-11T08:01:49.015Z,23.20
2018-01-11T08:04:16.630Z,19.10
2018-01-11T08:06:44.191Z,21.13
2018-01-11T08:09:11.826Z,23.40
2018-01-11T08:11:39.413Z,24.03
2018-01-11T08:14:06.997Z,21.07
2018-01-11T08:16:34.614Z,18.90
2018-01-11T08:19:02.176Z,18.30
2018-01-11T08:21:29.974Z,16.93
2018-01-11T08:23:57.588Z,21.17
2018-01-11T08:26:25.166Z,18.80
2018-01-11T08:28:52.922Z,18.30
2018-01-11T08:31:20.515Z,20.97
2018-01-11T08:33:48.450Z,19.17
2018-01-11T08:36:16.123Z,19.40
2018-01-11T08:38:43.783Z,17.07
2018-01-11T08:41:11.387Z,15.80
2018-01-11T08:43:38.984Z,15.90
2018-01-11T08:46:06.598Z,15.40
2018-01-11T08:48:34.193Z,14.93
2018-01-11T08:51:01.797Z,17.87
2018-01-11T08:53:29.402Z,18.00
2018-01-11T08:55:56.976Z,17.27
2018-01-11T08:58:24.873Z,24.30
2018-01-11T09:00:52.490Z,24.80
2018-01-11T09:03:20.050Z,31.40
2018-01-11T09:05:47.708Z,31.70
2018-01-11T09:08:15.325Z,38.00
2018-01-11T09:10:42.907Z,37.40
2018-01-11T09:13:10.479Z,32.67
2018-01-11T09:15:38.200Z,19.73
2018-01-11T09:18:05.973Z,21.77
2018-01-11T09:20:33.556Z,21.03
2018-01-11T09:23:01.192Z,20.27
2018-01-11T09:25:28.764Z,16.97
2018-01-11T09:27:56.473Z,16.85
2018-01-11T09:30:24.102Z,15.80
2018-01-11T09:32:51.711Z,13.87
2018-01-11T09:35:19.328Z,12.53
2018-01-11T09:37:47.054Z,10.83
2018-01-11T09:40:14.643Z,11.50
2018-01-11T09:42:42.205Z,13.70
2018-01-11T09:45:09.852Z,12.70
2018-01-11T09:47:37.453Z,13.57
2018-01-11T09:50:05.081Z,12.93
2018-01-11T09:52:32.687Z,13.03
2018-01-11T09:55:00.291Z,12.00
2018-01-11T09:57:27.864Z,11.63
2018-01-11T09:59:55.540Z,14.23
2018-01-11T10:02:23.192Z,13.00
2018-01-11T10:04:50.783Z,12.70
2018-01-11T10:07:18.393Z,12.87
2018-01-11T10:09:45.945Z,11.37
2018-01-11T10:12:13.512Z,10.40
2018-01-11T10:14:41.132Z,13.10
2018-01-11T10:17:08.756Z,10.40
2018-01-11T10:19:36.321Z,11.30
2018-01-11T10:22:04.054Z,12.60
2018-01-11T10:24:31.688Z,10.77
2018-01-11T10:26:59.573Z,10.43
2018-01-11T10:29:27.197Z,13.05
2018-01-11T10:31:54.906Z,13.05
2018-01-11T10:34:22.581Z,15.10
2018-01-11T10:36:50.246Z,14.63
2018-01-11T10:39:17.830Z,12.10
2018-01-11T10:41:45.415Z,16.80
2018-01-11T10:44:13.027Z,15.17
2018-01-11T10:46:40.601Z,14.80
2018-01-11T10:49:08.166Z,16.20
2018-01-11T10:51:35.808Z,17.80
2018-01-11T10:54:03.470Z,14.93
2018-01-11T10:56:31.133Z,15.53
2018-01-11T10:58:58.752Z,11.73
2018-01-11T11:01:31.971Z,12.70
2018-01-11T11:03:59.583Z,14.37
2018-01-11T11:06:27.162Z,13.90
2018-01-11T11:08:54.761Z,14.80
2018-01-11T11:11:22.391Z,15.87
2018-01-11T11:13:49.966Z,15.30
2018-01-11T11:16:17.531Z,26.57
2018-01-11T11:18:45.140Z,19.90
2018-01-11T11:21:12.700Z,26.10
2018-01-11T11:23:40.286Z,28.03
2018-01-11T11:26:07.909Z,30.33
2018-01-11T11:28:42.667Z,40.17
2018-01-11T11:31:10.283Z,40.40
2018-01-11T11:33:37.852Z,40.50
2018-01-11T11:36:05.422Z,41.60
2018-01-11T11:38:33.062Z,38.90
2018-01-11T11:41:00.630Z,43.27
2018-01-11T11:43:28.202Z,42.63
2018-01-11T11:45:55.811Z,175.43
2018-01-11T11:48:23.461Z,62.20
2018-01-11T11:50:51.028Z,139.60
2018-01-11T11:53:18.639Z,242.00
2018-01-11T11:55:46.241Z,97.23
2018-01-11T11:58:13.809Z,53.27
2018-01-11T12:00:41.411Z,56.77
2018-01-11T12:03:08.990Z,89.28
2018-01-11T12:05:36.556Z,67.37
2018-01-11T12:08:04.154Z,62.93
2018-01-11T12:10:31.736Z,51.07
2018-01-11T12:12:59.321Z,44.03
2018-01-11T12:15:26.915Z,49.90
2018-01-11T12:17:54.497Z,44.93
2018-01-11T12:20:22.067Z,46.20
2018-01-11T12:22:49.654Z,49.80
2018-01-11T12:25:17.203Z,52.45
2018-01-11T12:27:44.762Z,72.30
2018-01-11T12:30:12.355Z,75.63
2018-01-11T12:32:39.957Z,39.80
2018-01-11T12:35:07.507Z,39.63
2018-01-11T12:37:35.081Z,41.63
2018-01-11T12:40:02.616Z,33.43
2018-01-11T12:42:30.149Z,32.00
2018-01-11T12:44:57.892Z,27.40
2018-01-11T12:47:25.437Z,32.10
2018-01-11T12:49:52.987Z,28.80
2018-01-11T12:52:20.609Z,38.40
2018-01-11T12:54:48.322Z,32.90
2018-01-11T12:57:15.870Z,34.73
2018-01-11T12:59:43.491Z,27.83
2018-01-11T13:02:11.056Z,28.57
2018-01-11T13:04:38.687Z,26.57
2018-01-11T13:07:06.317Z,26.50
2018-01-11T13:09:33.916Z,27.00
2018-01-11T13:12:01.600Z,30.35
2018-01-11T13:14:29.179Z,33.77
2018-01-11T13:16:56.893Z,26.90
2018-01-11T13:19:24.455Z,23.73
2018-01-11T13:21:52.008Z,28.10
2018-01-11T13:24:19.614Z,20.53
2018-01-11T13:26:47.189Z,21.60
2018-01-11T13:29:14.766Z,35.17
2018-01-11T13:31:42.402Z,24.10
2018-01-11T13:34:09.990Z,34.60
2018-01-11T13:36:37.579Z,35.90
2018-01-11T13:39:05.221Z,23.90
2018-01-11T13:41:32.780Z,23.77
2018-01-11T13:44:00.336Z,30.17
2018-01-11T13:46:27.923Z,33.90
2018-01-11T13:48:56.015Z,27.20
2018-01-11T13:51:23.592Z,30.33
2018-01-11T13:53:51.216Z,27.48
2018-01-11T13:56:18.761Z,32.20
2018-01-11T13:58:46.309Z,34.50
2018-01-11T14:01:14.855Z,23.63
2018-01-11T14:03:42.420Z,25.37
2018-01-11T14:06:09.992Z,31.77
2018-01-11T14:08:37.574Z,28.20
2018-01-11T14:11:05.159Z,36.07
2018-01-11T14:13:32.927Z,35.03
2018-01-11T14:16:00.554Z,25.70
2018-01-11T14:18:28.138Z,29.80
2018-01-11T14:20:55.722Z,22.60
2018-01-11T14:23:23.329Z,30.17
2018-01-11T14:25:50.889Z,55.27
2018-01-11T14:28:18.439Z,32.00
2018-01-11T14:30:46.046Z,24.37
2018-01-11T14:33:13.606Z,74.40
2018-01-11T14:35:41.195Z,73.87
2018-01-11T14:38:09.016Z,65.95
2018-01-11T14:40:36.588Z,35.07
2018-01-11T14:43:04.140Z,31.87
2018-01-11T14:45:31.744Z,59.80
2018-01-11T14:47:59.311Z,40.70
2018-01-11T14:50:26.903Z,32.57
2018-01-11T14:52:54.510Z,31.47
2018-01-11T14:55:22.057Z,37.67
2018-01-11T14:57:49.873Z,28.20
2018-01-11T15:00:17.489Z,26.67
2018-01-11T15:02:45.044Z,27.10
2018-01-11T15:05:12.624Z,24.92
2018-01-11T15:07:40.228Z,29.47
2018-01-11T15:10:07.797Z,26.37
2018-01-11T15:12:35.390Z,35.87
2018-01-11T15:15:03.000Z,39.27
2018-01-11T15:17:30.654Z,43.47
2018-01-11T15:19:58.235Z,44.80
2018-01-11T15:22:26.016Z,40.38
2018-01-11T15:24:53.592Z,34.40
2018-01-11T15:27:21.148Z,27.90
2018-01-11T15:29:48.874Z,27.80
2018-01-11T15:32:16.560Z,30.87
2018-01-11T15:34:44.117Z,29.07
2018-01-11T16:57:56.640Z,56.93
2018-01-11T17:00:24.207Z,39.53
2018-01-11T17:02:51.776Z,42.63
2018-01-11T17:05:19.384Z,39.77
2018-01-11T17:07:46.992Z,45.73
2018-01-11T17:10:14.573Z,94.57
2018-01-11T17:12:42.231Z,84.00
2018-01-11T17:15:09.809Z,68.00
2018-01-11T17:17:37.366Z,52.63
2018-01-11T17:20:05.025Z,41.20
2018-01-11T17:22:32.657Z,42.67
2018-01-11T17:25:00.243Z,47.80
2018-01-11T17:27:27.830Z,37.80
2018-01-11T17:29:55.373Z,47.33
2018-01-11T17:32:22.945Z,51.40
2018-01-11T17:34:50.539Z,38.70
2018-01-11T17:37:18.114Z,44.03
2018-01-11T17:39:45.672Z,42.63
2018-01-11T17:42:13.278Z,46.57
2018-01-11T17:44:40.835Z,44.45
2018-01-11T17:47:08.392Z,47.53
2018-01-11T17:49:36.014Z,45.70
2018-01-11T17:52:03.597Z,37.90
2018-01-11T17:54:31.176Z,40.63
2018-01-11T17:56:58.862Z,30.50
2018-01-11T17:59:26.443Z,31.23
2018-01-11T18:01:54.024Z,32.10
2018-01-11T18:04:21.665Z,28.03
2018-01-11T18:06:49.242Z,43.37
2018-01-11T18:09:16.829Z,48.40
2018-01-11T18:11:44.424Z,52.00
2018-01-11T18:14:12.078Z,47.20
2018-01-11T18:16:39.652Z,57.07
2018-01-11T18:19:07.323Z,58.33
2018-01-11T18:21:34.891Z,48.38
2018-01-11T18:24:02.470Z,38.20
2018-01-11T18:26:30.062Z,42.13
2018-01-11T18:28:57.615Z,41.50
2018-01-11T18:31:25.224Z,49.50
2018-01-11T18:33:52.841Z,47.67
2018-01-11T18:36:20.415Z,41.23
2018-01-11T18:38:47.992Z,38.03
2018-01-11T18:41:15.642Z,33.57
2018-01-11T18:43:43.221Z,42.50
2018-01-11T18:46:10.796Z,45.00
2018-01-11T18:48:38.400Z,45.90
2018-01-11T18:51:05.983Z,47.10
2018-01-11T18:53:33.564Z,42.77
2018-01-11T18:56:01.258Z,47.28
2018-01-11T18:58:28.832Z,50.17
2018-01-11T19:00:56.402Z,43.23
2018-01-11T19:03:24.061Z,31.33
2018-01-11T19:05:51.628Z,33.73
2018-01-11T19:08:19.240Z,38.50
2018-01-11T19:10:46.822Z,32.50
2018-01-11T19:13:14.379Z,46.63
2018-01-11T19:15:41.988Z,41.37
2018-01-11T19:18:09.548Z,33.67
2018-01-11T19:20:37.122Z,34.27
2018-01-11T19:23:04.736Z,32.10
2018-01-11T19:25:32.287Z,33.07
2018-01-11T19:27:59.854Z,33.30
2018-01-11T19:30:27.439Z,37.17
2018-01-11T19:32:55.013Z,39.70
2018-01-11T19:35:22.593Z,42.90
2018-01-11T19:37:50.187Z,42.37
2018-01-11T19:40:17.928Z,50.80
2018-01-11T19:42:45.500Z,45.50
2018-01-11T19:45:13.100Z,41.40
2018-01-11T19:47:40.681Z,46.33
2018-01-11T19:50:08.393Z,41.23
2018-01-11T19:52:35.978Z,37.17
2018-01-11T19:55:03.694Z,33.90
2018-01-11T19:57:31.255Z,34.60
2018-01-11T19:59:58.857Z,35.57
2018-01-11T20:02:26.415Z,34.17
2018-01-11T20:04:53.994Z,34.27
2018-01-11T20:07:21.594Z,34.47
2018-01-11T20:09:49.190Z,35.87
2018-01-11T20:12:16.763Z,36.53
2018-01-11T20:14:44.389Z,36.33
2018-01-11T20:17:11.942Z,38.50
2018-01-11T20:19:39.497Z,39.60
2018-01-11T20:22:07.101Z,35.00
2018-01-11T20:24:34.657Z,33.20
2018-01-11T20:27:02.220Z,35.73
2018-01-11T20:29:29.824Z,32.50
2018-01-11T20:31:57.399Z,37.80
2018-01-11T20:34:24.964Z,34.50
2018-01-11T20:36:52.583Z,32.57
2018-01-11T20:39:20.183Z,33.60
2018-01-11T20:41:47.817Z,33.80
2018-01-11T20:44:15.411Z,38.90
2018-01-11T20:46:42.976Z,42.13
2018-01-11T20:49:10.558Z,40.23
2018-01-11T20:51:38.162Z,36.40
2018-01-11T20:54:05.730Z,33.63
2018-01-11T20:56:33.314Z,35.70
2018-01-11T20:59:00.906Z,29.53
2018-01-11T21:01:28.500Z,31.37
2018-01-11T21:03:56.082Z,32.30
2018-01-11T21:06:23.719Z,31.33
2018-01-11T21:08:51.271Z,33.80
2018-01-11T21:11:18.843Z,34.33
2018-01-11T21:13:46.455Z,34.40
2018-01-11T21:16:14.032Z,33.25
2018-01-11T21:18:41.579Z,35.40
2018-01-11T21:21:09.177Z,35.73
2018-01-11T21:23:36.767Z,26.83
2018-01-11T21:26:04.343Z,28.92
2018-01-11T21:28:31.977Z,29.13
2018-01-11T21:30:59.574Z,28.37
2018-01-11T21:33:27.144Z,27.37
2018-01-11T21:35:54.754Z,27.53
2018-01-11T21:38:22.328Z,28.23
2018-01-11T21:40:49.888Z,24.70
2018-01-11T21:43:17.512Z,27.07
2018-01-11T21:45:45.099Z,26.60
2018-01-11T21:48:12.673Z,30.03
2018-01-11T21:50:40.285Z,24.90
2018-01-11T21:53:07.870Z,25.90
2018-01-11T21:55:35.472Z,25.40
2018-01-11T21:58:03.113Z,25.97
2018-01-11T22:00:30.683Z,26.07
2018-01-11T22:02:58.262Z,26.80
2018-01-11T22:05:25.882Z,28.10
2018-01-11T22:07:53.454Z,26.30
2018-01-11T22:10:21.026Z,25.40
2018-01-11T22:12:49.496Z,25.70
2018-01-11T22:15:17.078Z,26.37
2018-01-11T22:17:44.648Z,26.17
2018-01-11T22:20:12.255Z,31.85
2018-01-11T22:22:40.003Z,28.60
2018-01-11T22:25:07.570Z,27.00
2018-01-11T22:27:35.178Z,33.17
2018-01-11T22:30:02.771Z,32.37
2018-01-11T22:32:30.345Z,30.60
2018-01-11T22:34:57.940Z,32.75
2018-01-11T22:37:25.510Z,31.53
2018-01-11T22:39:53.066Z,29.00
2018-01-11T22:42:20.676Z,29.50
2018-01-11T22:44:48.255Z,30.60
2018-01-11T22:47:15.831Z,30.53
2018-01-11T22:49:43.447Z,30.57
2018-01-11T22:52:11.035Z,28.60
2018-01-11T22:54:38.626Z,29.23
2018-01-11T22:57:06.248Z,28.10
2018-01-11T22:59:33.817Z,28.37
2018-01-11T23:02:01.388Z,28.20
2018-01-11T23:04:29.004Z,30.63
2018-01-11T23:06:56.585Z,28.10
2018-01-11T23:09:24.166Z,27.13
2018-01-11T23:11:51.924Z,30.17
2018-01-11T23:14:19.501Z,28.50
2018-01-11T23:16:47.082Z,31.37
2018-01-11T23:19:14.692Z,31.23
2018-01-11T23:21:42.271Z,27.67
2018-01-11T23:24:09.856Z,30.30
2018-01-11T23:26:37.463Z,29.40
2018-01-11T23:29:05.046Z,29.97
2018-01-11T23:31:32.632Z,30.10
2018-01-11T23:34:00.254Z,30.20
2018-01-11T23:36:27.831Z,27.77
2018-01-11T23:38:55.420Z,30.97
2018-01-11T23:41:23.040Z,29.50
2018-01-11T23:43:50.614Z,28.80
2018-01-11T23:46:18.179Z,26.97
2018-01-11T23:48:45.786Z,29.27
2018-01-11T23:51:13.377Z,27.97
2018-01-11T23:53:40.957Z,27.50
2018-01-11T23:56:08.646Z,31.20
2018-01-11T23:58:36.288Z,31.00
